sensor_id;sensor_type;location;lat;lon;timestamp;P1;durP1;ratioP1;P2;durP2;ratioP2
36497;SDS011;22513;51.222;6.480;2022-08-11T00:00:18;4.68;;;2.40;;
36497;SDS011;22513;51.222;6.480;2022-08-11T00:02:49;4.60;;;2.03;;
36497;SDS011;22513;51.222;6.480;2022-08-11T00:05:18;6.10;;;2.05;;
36497;SDS011;22513;51.222;6.480;2022-08-11T00:07:46;7.73;;;2.10;;
36497;SDS011;22513;51.222;6.480;2022-08-11T00:10:16;4.53;;;2.28;;
36497;SDS011;22513;51.222;6.480;2022-08-11T00:12:45;6.03;;;2.03;;
36497;SDS011;22513;51.222;6.480;2022-08-11T00:15:16;3.40;;;2.00;;
36497;SDS011;22513;51.222;6.480;2022-08-11T00:17:43;4.57;;;2.10;;
36497;SDS011;22513;51.222;6.480;2022-08-11T00:20:11;2.85;;;2.22;;
36497;SDS011;22513;51.222;6.480;2022-08-11T00:22:42;7.10;;;2.20;;
36497;SDS011;22513;51.222;6.480;2022-08-11T00:25:09;2.75;;;2.05;;
36497;SDS011;22513;51.222;6.480;2022-08-11T00:27:37;3.17;;;1.85;;
36497;SDS011;22513;51.222;6.480;2022-08-11T00:30:07;7.30;;;2.13;;
36497;SDS011;22513;51.222;6.480;2022-08-11T00:32:38;3.45;;;1.98;;
36497;SDS011;22513;51.222;6.480;2022-08-11T00:35:07;4.88;;;2.38;;
36497;SDS011;22513;51.222;6.480;2022-08-11T00:37:36;5.97;;;2.08;;
36497;SDS011;22513;51.222;6.480;2022-08-11T00:40:03;5.72;;;2.40;;
36497;SDS011;22513;51.222;6.480;2022-08-11T00:45:41;3.80;;;1.85;;
36497;SDS011;22513;51.222;6.480;2022-08-11T00:56:40;5.22;;;1.80;;
36497;SDS011;22513;51.222;6.480;2022-08-11T01:48:41;3.47;;;2.28;;
36497;SDS011;22513;51.222;6.480;2022-08-11T01:54:24;3.47;;;2.30;;
36497;SDS011;22513;51.222;6.480;2022-08-11T02:16:46;3.92;;;2.78;;
36497;SDS011;22513;51.222;6.480;2022-08-11T02:37:18;4.35;;;2.78;;
36497;SDS011;22513;51.222;6.480;2022-08-11T02:51:03;3.50;;;2.38;;
36497;SDS011;22513;51.222;6.480;2022-08-11T02:54:07;4.32;;;2.80;;
36497;SDS011;22513;51.222;6.480;2022-08-11T03:10:35;7.30;;;2.60;;
36497;SDS011;22513;51.222;6.480;2022-08-11T03:13:12;5.53;;;2.80;;
36497;SDS011;22513;51.222;6.480;2022-08-11T03:16:23;4.68;;;3.20;;
36497;SDS011;22513;51.222;6.480;2022-08-11T03:25:11;3.00;;;2.50;;
36497;SDS011;22513;51.222;6.480;2022-08-11T03:44:27;7.80;;;3.28;;
36497;SDS011;22513;51.222;6.480;2022-08-11T03:47:08;4.82;;;2.80;;
36497;SDS011;22513;51.222;6.480;2022-08-11T03:49:47;4.75;;;2.95;;
36497;SDS011;22513;51.222;6.480;2022-08-11T03:55:36;7.25;;;3.67;;
36497;SDS011;22513;51.222;6.480;2022-08-11T04:24:31;5.03;;;3.10;;
36497;SDS011;22513;51.222;6.480;2022-08-11T04:32:52;8.57;;;3.38;;
36497;SDS011;22513;51.222;6.480;2022-08-11T04:41:22;6.47;;;3.38;;
36497;SDS011;22513;51.222;6.480;2022-08-11T04:50:19;6.65;;;3.22;;
36497;SDS011;22513;51.222;6.480;2022-08-11T04:53:25;8.00;;;3.15;;
36497;SDS011;22513;51.222;6.480;2022-08-11T04:56:25;6.63;;;3.00;;
36497;SDS011;22513;51.222;6.480;2022-08-11T05:04:59;9.90;;;4.00;;
36497;SDS011;22513;51.222;6.480;2022-08-11T05:13:24;6.07;;;2.90;;
36497;SDS011;22513;51.222;6.480;2022-08-11T05:19:26;6.53;;;3.03;;
36497;SDS011;22513;51.222;6.480;2022-08-11T05:22:10;9.43;;;3.40;;
36497;SDS011;22513;51.222;6.480;2022-08-11T05:25:00;6.57;;;2.80;;
36497;SDS011;22513;51.222;6.480;2022-08-11T05:27:54;6.20;;;3.00;;
36497;SDS011;22513;51.222;6.480;2022-08-11T05:30:46;5.55;;;3.15;;
36497;SDS011;22513;51.222;6.480;2022-08-11T05:33:36;6.88;;;2.97;;
36497;SDS011;22513;51.222;6.480;2022-08-11T05:36:32;7.80;;;2.92;;
36497;SDS011;22513;51.222;6.480;2022-08-11T05:39:15;4.05;;;2.45;;
36497;SDS011;22513;51.222;6.480;2022-08-11T05:42:03;4.10;;;2.72;;
36497;SDS011;22513;51.222;6.480;2022-08-11T05:44:49;5.55;;;2.70;;
36497;SDS011;22513;51.222;6.480;2022-08-11T05:47:35;5.10;;;3.40;;
36497;SDS011;22513;51.222;6.480;2022-08-11T05:50:21;7.88;;;3.53;;
36497;SDS011;22513;51.222;6.480;2022-08-11T05:53:08;5.60;;;2.92;;
36497;SDS011;22513;51.222;6.480;2022-08-11T05:55:54;6.93;;;3.40;;
36497;SDS011;22513;51.222;6.480;2022-08-11T05:58:41;6.82;;;3.08;;
36497;SDS011;22513;51.222;6.480;2022-08-11T06:01:12;9.88;;;2.88;;
36497;SDS011;22513;51.222;6.480;2022-08-11T06:03:45;4.53;;;3.40;;
36497;SDS011;22513;51.222;6.480;2022-08-11T06:06:37;5.30;;;3.20;;
36497;SDS011;22513;51.222;6.480;2022-08-11T06:09:04;10.95;;;3.90;;
36497;SDS011;22513;51.222;6.480;2022-08-11T06:11:38;5.30;;;2.70;;
36497;SDS011;22513;51.222;6.480;2022-08-11T06:14:07;7.05;;;3.00;;
36497;SDS011;22513;51.222;6.480;2022-08-11T06:16:34;6.53;;;2.33;;
36497;SDS011;22513;51.222;6.480;2022-08-11T06:19:01;5.78;;;2.70;;
36497;SDS011;22513;51.222;6.480;2022-08-11T06:21:28;6.95;;;2.88;;
36497;SDS011;22513;51.222;6.480;2022-08-11T06:23:58;14.48;;;2.80;;
36497;SDS011;22513;51.222;6.480;2022-08-11T06:26:25;7.88;;;2.85;;
36497;SDS011;22513;51.222;6.480;2022-08-11T06:28:51;4.78;;;2.65;;
36497;SDS011;22513;51.222;6.480;2022-08-11T06:31:23;7.95;;;3.28;;
36497;SDS011;22513;51.222;6.480;2022-08-11T06:39:05;7.78;;;3.25;;
36497;SDS011;22513;51.222;6.480;2022-08-11T06:41:47;6.38;;;2.53;;
36497;SDS011;22513;51.222;6.480;2022-08-11T06:44:29;7.75;;;2.70;;
36497;SDS011;22513;51.222;6.480;2022-08-11T06:47:04;6.65;;;3.20;;
36497;SDS011;22513;51.222;6.480;2022-08-11T06:49:41;7.70;;;3.05;;
36497;SDS011;22513;51.222;6.480;2022-08-11T06:52:33;5.10;;;2.67;;
36497;SDS011;22513;51.222;6.480;2022-08-11T06:55:10;7.47;;;3.00;;
36497;SDS011;22513;51.222;6.480;2022-08-11T06:57:39;6.43;;;2.60;;
36497;SDS011;22513;51.222;6.480;2022-08-11T07:00:29;8.57;;;2.78;;
36497;SDS011;22513;51.222;6.480;2022-08-11T07:02:59;6.85;;;2.47;;
36497;SDS011;22513;51.222;6.480;2022-08-11T07:13:58;4.45;;;2.45;;
36497;SDS011;22513;51.222;6.480;2022-08-11T07:16:45;4.25;;;2.63;;
36497;SDS011;22513;51.222;6.480;2022-08-11T07:19:13;4.95;;;2.70;;
36497;SDS011;22513;51.222;6.480;2022-08-11T07:22:02;6.00;;;3.20;;
36497;SDS011;22513;51.222;6.480;2022-08-11T07:24:53;5.40;;;2.60;;
36497;SDS011;22513;51.222;6.480;2022-08-11T07:28:03;9.18;;;2.50;;
36497;SDS011;22513;51.222;6.480;2022-08-11T07:30:52;6.43;;;2.65;;
36497;SDS011;22513;51.222;6.480;2022-08-11T07:33:27;6.68;;;2.70;;
36497;SDS011;22513;51.222;6.480;2022-08-11T07:36:03;5.28;;;2.45;;
36497;SDS011;22513;51.222;6.480;2022-08-11T07:41:09;4.15;;;2.53;;
36497;SDS011;22513;51.222;6.480;2022-08-11T07:43:38;4.07;;;2.10;;
36497;SDS011;22513;51.222;6.480;2022-08-11T07:46:05;2.97;;;2.00;;
36497;SDS011;22513;51.222;6.480;2022-08-11T07:48:50;5.03;;;2.00;;
36497;SDS011;22513;51.222;6.480;2022-08-11T07:51:35;4.05;;;2.30;;
36497;SDS011;22513;51.222;6.480;2022-08-11T07:54:21;4.22;;;2.08;;
36497;SDS011;22513;51.222;6.480;2022-08-11T07:56:48;5.88;;;1.80;;
36497;SDS011;22513;51.222;6.480;2022-08-11T07:59:16;5.18;;;2.53;;
36497;SDS011;22513;51.222;6.480;2022-08-11T08:02:01;8.00;;;2.42;;
36497;SDS011;22513;51.222;6.480;2022-08-11T08:04:45;8.27;;;2.10;;
36497;SDS011;22513;51.222;6.480;2022-08-11T08:07:31;6.97;;;2.20;;
36497;SDS011;22513;51.222;6.480;2022-08-11T08:10:16;6.25;;;2.10;;
36497;SDS011;22513;51.222;6.480;2022-08-11T08:13:02;3.63;;;1.90;;
36497;SDS011;22513;51.222;6.480;2022-08-11T08:15:48;4.47;;;1.83;;
36497;SDS011;22513;51.222;6.480;2022-08-11T08:18:34;5.68;;;2.00;;
36497;SDS011;22513;51.222;6.480;2022-08-11T08:21:02;5.13;;;2.22;;
36497;SDS011;22513;51.222;6.480;2022-08-11T08:23:39;2.73;;;1.90;;
36497;SDS011;22513;51.222;6.480;2022-08-11T08:26:11;4.57;;;2.30;;
36497;SDS011;22513;51.222;6.480;2022-08-11T08:28:58;4.22;;;2.45;;
36497;SDS011;22513;51.222;6.480;2022-08-11T08:31:45;8.85;;;2.10;;
36497;SDS011;22513;51.222;6.480;2022-08-11T08:34:13;3.72;;;1.95;;
36497;SDS011;22513;51.222;6.480;2022-08-11T08:36:47;4.13;;;2.20;;
36497;SDS011;22513;51.222;6.480;2022-08-11T08:39:14;4.45;;;2.20;;
36497;SDS011;22513;51.222;6.480;2022-08-11T08:41:45;6.90;;;1.83;;
36497;SDS011;22513;51.222;6.480;2022-08-11T08:44:14;5.38;;;2.30;;
36497;SDS011;22513;51.222;6.480;2022-08-11T08:46:43;4.10;;;2.08;;
36497;SDS011;22513;51.222;6.480;2022-08-11T08:49:15;3.42;;;1.77;;
36497;SDS011;22513;51.222;6.480;2022-08-11T08:51:47;5.90;;;2.20;;
36497;SDS011;22513;51.222;6.480;2022-08-11T08:54:16;4.57;;;2.15;;
36497;SDS011;22513;51.222;6.480;2022-08-11T08:56:45;5.95;;;2.47;;
36497;SDS011;22513;51.222;6.480;2022-08-11T08:59:13;2.83;;;1.70;;
36497;SDS011;22513;51.222;6.480;2022-08-11T09:01:50;7.15;;;2.03;;
36497;SDS011;22513;51.222;6.480;2022-08-11T09:04:21;5.10;;;2.00;;
36497;SDS011;22513;51.222;6.480;2022-08-11T09:06:48;5.90;;;2.58;;
36497;SDS011;22513;51.222;6.480;2022-08-11T09:09:14;11.93;;;2.85;;
36497;SDS011;22513;51.222;6.480;2022-08-11T09:14:14;4.10;;;2.20;;
36497;SDS011;22513;51.222;6.480;2022-08-11T09:16:44;4.20;;;1.88;;
36497;SDS011;22513;51.222;6.480;2022-08-11T09:19:16;4.93;;;2.30;;
36497;SDS011;22513;51.222;6.480;2022-08-11T09:21:47;4.70;;;2.22;;
36497;SDS011;22513;51.222;6.480;2022-08-11T09:24:35;3.08;;;2.30;;
36497;SDS011;22513;51.222;6.480;2022-08-11T09:27:40;5.88;;;2.20;;
36497;SDS011;22513;51.222;6.480;2022-08-11T09:30:07;5.50;;;2.15;;
36497;SDS011;22513;51.222;6.480;2022-08-11T09:32:35;5.53;;;2.33;;
36497;SDS011;22513;51.222;6.480;2022-08-11T09:35:03;8.52;;;2.63;;
36497;SDS011;22513;51.222;6.480;2022-08-11T09:37:29;3.95;;;2.10;;
36497;SDS011;22513;51.222;6.480;2022-08-11T09:40:14;5.13;;;2.70;;
36497;SDS011;22513;51.222;6.480;2022-08-11T09:42:55;5.57;;;1.85;;
36497;SDS011;22513;51.222;6.480;2022-08-11T09:45:47;5.07;;;2.40;;
36497;SDS011;22513;51.222;6.480;2022-08-11T09:48:15;5.93;;;2.35;;
36497;SDS011;22513;51.222;6.480;2022-08-11T09:50:44;5.75;;;2.30;;
36497;SDS011;22513;51.222;6.480;2022-08-11T09:53:14;7.10;;;2.35;;
36497;SDS011;22513;51.222;6.480;2022-08-11T09:55:42;3.78;;;2.67;;
36497;SDS011;22513;51.222;6.480;2022-08-11T09:58:10;5.85;;;2.53;;
36497;SDS011;22513;51.222;6.480;2022-08-11T10:00:40;3.08;;;2.13;;
36497;SDS011;22513;51.222;6.480;2022-08-11T10:03:23;3.50;;;1.98;;
36497;SDS011;22513;51.222;6.480;2022-08-11T10:05:52;4.50;;;2.17;;
36497;SDS011;22513;51.222;6.480;2022-08-11T10:08:46;4.40;;;1.90;;
36497;SDS011;22513;51.222;6.480;2022-08-11T10:11:18;7.15;;;2.38;;
36497;SDS011;22513;51.222;6.480;2022-08-11T10:13:47;3.78;;;2.22;;
36497;SDS011;22513;51.222;6.480;2022-08-11T10:16:36;2.78;;;1.80;;
36497;SDS011;22513;51.222;6.480;2022-08-11T10:19:05;3.05;;;2.00;;
36497;SDS011;22513;51.222;6.480;2022-08-11T10:21:36;3.10;;;2.13;;
36497;SDS011;22513;51.222;6.480;2022-08-11T10:24:05;2.75;;;2.05;;
36497;SDS011;22513;51.222;6.480;2022-08-11T10:26:51;2.72;;;1.92;;
36497;SDS011;22513;51.222;6.480;2022-08-11T10:32:10;3.08;;;1.88;;
36497;SDS011;22513;51.222;6.480;2022-08-11T10:34:55;6.90;;;2.05;;
36497;SDS011;22513;51.222;6.480;2022-08-11T10:37:23;3.85;;;2.10;;
36497;SDS011;22513;51.222;6.480;2022-08-11T10:39:50;2.92;;;2.10;;
36497;SDS011;22513;51.222;6.480;2022-08-11T10:42:16;5.20;;;2.03;;
36497;SDS011;22513;51.222;6.480;2022-08-11T10:45:03;3.50;;;2.08;;
36497;SDS011;22513;51.222;6.480;2022-08-11T10:47:54;5.05;;;2.15;;
36497;SDS011;22513;51.222;6.480;2022-08-11T10:50:21;3.50;;;2.20;;
36497;SDS011;22513;51.222;6.480;2022-08-11T10:53:06;4.85;;;1.90;;
36497;SDS011;22513;51.222;6.480;2022-08-11T10:55:51;4.50;;;2.42;;
36497;SDS011;22513;51.222;6.480;2022-08-11T10:58:36;3.42;;;2.10;;
36497;SDS011;22513;51.222;6.480;2022-08-11T11:01:12;3.75;;;1.90;;
36497;SDS011;22513;51.222;6.480;2022-08-11T11:03:38;3.45;;;2.13;;
36497;SDS011;22513;51.222;6.480;2022-08-11T11:08:51;3.70;;;1.92;;
36497;SDS011;22513;51.222;6.480;2022-08-11T11:11:22;2.72;;;2.20;;
36497;SDS011;22513;51.222;6.480;2022-08-11T11:14:17;5.95;;;2.10;;
36497;SDS011;22513;51.222;6.480;2022-08-11T11:17:05;4.00;;;2.10;;
36497;SDS011;22513;51.222;6.480;2022-08-11T11:19:52;5.55;;;2.38;;
36497;SDS011;22513;51.222;6.480;2022-08-11T11:22:23;4.88;;;2.00;;
36497;SDS011;22513;51.222;6.480;2022-08-11T11:28:14;3.13;;;2.20;;
36497;SDS011;22513;51.222;6.480;2022-08-11T11:33:40;4.35;;;2.20;;
36497;SDS011;22513;51.222;6.480;2022-08-11T11:39:09;6.80;;;2.50;;
36497;SDS011;22513;51.222;6.480;2022-08-11T11:41:35;3.13;;;2.22;;
36497;SDS011;22513;51.222;6.480;2022-08-11T11:44:02;4.32;;;2.17;;
36497;SDS011;22513;51.222;6.480;2022-08-11T11:46:29;2.15;;;1.77;;
36497;SDS011;22513;51.222;6.480;2022-08-11T11:48:56;2.45;;;2.10;;
36497;SDS011;22513;51.222;6.480;2022-08-11T11:51:24;2.60;;;2.00;;
36497;SDS011;22513;51.222;6.480;2022-08-11T11:53:51;3.22;;;2.00;;
36497;SDS011;22513;51.222;6.480;2022-08-11T11:56:18;6.78;;;2.53;;
36497;SDS011;22513;51.222;6.480;2022-08-11T11:58:49;3.28;;;2.17;;
36497;SDS011;22513;51.222;6.480;2022-08-11T12:01:36;5.30;;;2.17;;
36497;SDS011;22513;51.222;6.480;2022-08-11T12:04:02;2.63;;;1.90;;
36497;SDS011;22513;51.222;6.480;2022-08-11T12:06:32;6.10;;;2.30;;
36497;SDS011;22513;51.222;6.480;2022-08-11T12:08:58;4.50;;;2.30;;
36497;SDS011;22513;51.222;6.480;2022-08-11T12:11:25;6.45;;;2.22;;
36497;SDS011;22513;51.222;6.480;2022-08-11T12:14:10;6.18;;;2.60;;
36497;SDS011;22513;51.222;6.480;2022-08-11T12:16:38;2.95;;;2.20;;
36497;SDS011;22513;51.222;6.480;2022-08-11T12:19:07;4.88;;;2.40;;
36497;SDS011;22513;51.222;6.480;2022-08-11T12:21:40;3.72;;;2.63;;
36497;SDS011;22513;51.222;6.480;2022-08-11T12:24:28;6.03;;;2.15;;
36497;SDS011;22513;51.222;6.480;2022-08-11T12:27:13;6.47;;;2.15;;
36497;SDS011;22513;51.222;6.480;2022-08-11T12:29:56;5.72;;;2.65;;
36497;SDS011;22513;51.222;6.480;2022-08-11T12:32:28;7.43;;;2.17;;
36497;SDS011;22513;51.222;6.480;2022-08-11T12:34:56;4.05;;;2.35;;
36497;SDS011;22513;51.222;6.480;2022-08-11T12:37:31;5.57;;;2.47;;
36497;SDS011;22513;51.222;6.480;2022-08-11T12:40:13;4.50;;;2.42;;
36497;SDS011;22513;51.222;6.480;2022-08-11T12:43:10;4.65;;;2.42;;
36497;SDS011;22513;51.222;6.480;2022-08-11T12:46:01;4.65;;;2.28;;
36497;SDS011;22513;51.222;6.480;2022-08-11T12:48:34;4.47;;;2.20;;
36497;SDS011;22513;51.222;6.480;2022-08-11T12:51:24;5.35;;;2.13;;
36497;SDS011;22513;51.222;6.480;2022-08-11T12:55:12;6.00;;;2.78;;
36497;SDS011;22513;51.222;6.480;2022-08-11T12:57:11;6.75;;;2.33;;
36497;SDS011;22513;51.222;6.480;2022-08-11T13:00:00;3.08;;;2.58;;
36497;SDS011;22513;51.222;6.480;2022-08-11T13:02:47;4.47;;;2.13;;
36497;SDS011;22513;51.222;6.480;2022-08-11T13:05:32;3.83;;;2.30;;
36497;SDS011;22513;51.222;6.480;2022-08-11T13:08:02;4.28;;;2.10;;
36497;SDS011;22513;51.222;6.480;2022-08-11T13:10:30;5.25;;;2.25;;
36497;SDS011;22513;51.222;6.480;2022-08-11T13:13:16;2.75;;;2.20;;
36497;SDS011;22513;51.222;6.480;2022-08-11T13:15:52;3.78;;;2.22;;
36497;SDS011;22513;51.222;6.480;2022-08-11T13:18:20;4.80;;;2.40;;
36497;SDS011;22513;51.222;6.480;2022-08-11T13:20:47;6.00;;;1.90;;
36497;SDS011;22513;51.222;6.480;2022-08-11T13:23:18;5.13;;;2.30;;
36497;SDS011;22513;51.222;6.480;2022-08-11T13:25:44;2.70;;;1.98;;
36497;SDS011;22513;51.222;6.480;2022-08-11T13:28:10;3.30;;;2.45;;
36497;SDS011;22513;51.222;6.480;2022-08-11T13:30:37;6.53;;;2.47;;
36497;SDS011;22513;51.222;6.480;2022-08-11T13:33:22;3.10;;;1.92;;
36497;SDS011;22513;51.222;6.480;2022-08-11T13:35:50;6.57;;;2.38;;
36497;SDS011;22513;51.222;6.480;2022-08-11T13:38:18;4.43;;;2.00;;
36497;SDS011;22513;51.222;6.480;2022-08-11T13:40:46;6.28;;;2.40;;
36497;SDS011;22513;51.222;6.480;2022-08-11T13:43:13;5.13;;;1.98;;
36497;SDS011;22513;51.222;6.480;2022-08-11T13:45:40;4.85;;;2.38;;
36497;SDS011;22513;51.222;6.480;2022-08-11T13:48:09;3.95;;;2.33;;
36497;SDS011;22513;51.222;6.480;2022-08-11T13:50:37;5.38;;;2.25;;
36497;SDS011;22513;51.222;6.480;2022-08-11T13:53:22;5.05;;;2.40;;
36497;SDS011;22513;51.222;6.480;2022-08-11T13:55:50;6.57;;;2.17;;
36497;SDS011;22513;51.222;6.480;2022-08-11T13:58:16;3.28;;;2.47;;
36497;SDS011;22513;51.222;6.480;2022-08-11T14:00:44;8.43;;;2.85;;
36497;SDS011;22513;51.222;6.480;2022-08-11T14:03:13;5.13;;;2.25;;
36497;SDS011;22513;51.222;6.480;2022-08-11T14:05:47;3.63;;;2.63;;
36497;SDS011;22513;51.222;6.480;2022-08-11T14:08:17;3.50;;;2.15;;
36497;SDS011;22513;51.222;6.480;2022-08-11T14:10:47;3.45;;;2.30;;
36497;SDS011;22513;51.222;6.480;2022-08-11T14:13:35;3.83;;;2.58;;
36497;SDS011;22513;51.222;6.480;2022-08-11T14:16:05;8.02;;;2.40;;
36497;SDS011;22513;51.222;6.480;2022-08-11T14:18:42;3.72;;;2.25;;
36497;SDS011;22513;51.222;6.480;2022-08-11T14:21:10;5.05;;;2.28;;
36497;SDS011;22513;51.222;6.480;2022-08-11T14:23:57;7.00;;;2.58;;
36497;SDS011;22513;51.222;6.480;2022-08-11T14:26:24;5.22;;;2.45;;
36497;SDS011;22513;51.222;6.480;2022-08-11T14:29:03;5.15;;;2.53;;
36497;SDS011;22513;51.222;6.480;2022-08-11T14:31:39;5.88;;;2.10;;
36497;SDS011;22513;51.222;6.480;2022-08-11T14:34:10;8.50;;;2.63;;
36497;SDS011;22513;51.222;6.480;2022-08-11T14:36:44;8.85;;;2.30;;
36497;SDS011;22513;51.222;6.480;2022-08-11T14:39:15;6.82;;;2.88;;
36497;SDS011;22513;51.222;6.480;2022-08-11T14:41:44;6.38;;;2.97;;
36497;SDS011;22513;51.222;6.480;2022-08-11T14:44:31;7.45;;;2.55;;
36497;SDS011;22513;51.222;6.480;2022-08-11T14:47:18;3.53;;;1.95;;
36497;SDS011;22513;51.222;6.480;2022-08-11T14:49:44;4.72;;;2.60;;
36497;SDS011;22513;51.222;6.480;2022-08-11T14:52:12;2.80;;;2.30;;
36497;SDS011;22513;51.222;6.480;2022-08-11T14:54:43;4.27;;;2.77;;
36497;SDS011;22513;51.222;6.480;2022-08-11T14:57:30;4.13;;;2.25;;
36497;SDS011;22513;51.222;6.480;2022-08-11T15:00:00;4.05;;;2.05;;
36497;SDS011;22513;51.222;6.480;2022-08-11T15:02:30;4.47;;;2.00;;
36497;SDS011;22513;51.222;6.480;2022-08-11T15:05:18;4.47;;;2.50;;
36497;SDS011;22513;51.222;6.480;2022-08-11T15:07:48;4.40;;;2.20;;
36497;SDS011;22513;51.222;6.480;2022-08-11T15:10:15;3.10;;;2.45;;
36497;SDS011;22513;51.222;6.480;2022-08-11T15:12:42;8.02;;;2.47;;
36497;SDS011;22513;51.222;6.480;2022-08-11T15:15:09;5.50;;;2.03;;
36497;SDS011;22513;51.222;6.480;2022-08-11T15:18:10;3.33;;;2.10;;
36497;SDS011;22513;51.222;6.480;2022-08-11T15:20:40;3.30;;;2.10;;
36497;SDS011;22513;51.222;6.480;2022-08-11T15:23:24;4.22;;;2.10;;
36497;SDS011;22513;51.222;6.480;2022-08-11T15:26:22;4.55;;;2.03;;
36497;SDS011;22513;51.222;6.480;2022-08-11T15:29:13;3.45;;;2.40;;
36497;SDS011;22513;51.222;6.480;2022-08-11T15:32:01;3.70;;;2.30;;
36497;SDS011;22513;51.222;6.480;2022-08-11T15:34:46;5.72;;;2.63;;
36497;SDS011;22513;51.222;6.480;2022-08-11T15:37:36;3.63;;;2.10;;
36497;SDS011;22513;51.222;6.480;2022-08-11T15:40:10;5.32;;;2.47;;
36497;SDS011;22513;51.222;6.480;2022-08-11T15:43:14;3.55;;;2.00;;
36497;SDS011;22513;51.222;6.480;2022-08-11T15:46:17;3.05;;;2.10;;
36497;SDS011;22513;51.222;6.480;2022-08-11T15:53:57;3.90;;;2.40;;
36497;SDS011;22513;51.222;6.480;2022-08-11T15:56:28;5.30;;;2.60;;
36497;SDS011;22513;51.222;6.480;2022-08-11T15:58:56;4.68;;;2.50;;
36497;SDS011;22513;51.222;6.480;2022-08-11T16:01:43;9.73;;;2.63;;
36497;SDS011;22513;51.222;6.480;2022-08-11T16:04:29;5.35;;;2.50;;
36497;SDS011;22513;51.222;6.480;2022-08-11T16:07:00;3.00;;;2.00;;
36497;SDS011;22513;51.222;6.480;2022-08-11T16:12:43;3.70;;;1.95;;
36497;SDS011;22513;51.222;6.480;2022-08-11T16:15:27;6.60;;;2.55;;
36497;SDS011;22513;51.222;6.480;2022-08-11T16:18:14;3.10;;;2.50;;
36497;SDS011;22513;51.222;6.480;2022-08-11T16:20:43;3.88;;;2.40;;
36497;SDS011;22513;51.222;6.480;2022-08-11T16:23:10;9.38;;;2.65;;
36497;SDS011;22513;51.222;6.480;2022-08-11T16:25:37;2.67;;;2.30;;
36497;SDS011;22513;51.222;6.480;2022-08-11T16:28:03;9.90;;;2.47;;
36497;SDS011;22513;51.222;6.480;2022-08-11T16:30:31;5.88;;;2.75;;
36497;SDS011;22513;51.222;6.480;2022-08-11T16:32:58;2.53;;;2.30;;
36497;SDS011;22513;51.222;6.480;2022-08-11T16:35:25;3.10;;;1.92;;
36497;SDS011;22513;51.222;6.480;2022-08-11T16:38:12;5.45;;;2.40;;
36497;SDS011;22513;51.222;6.480;2022-08-11T16:40:57;5.05;;;2.42;;
36497;SDS011;22513;51.222;6.480;2022-08-11T16:43:25;4.35;;;2.40;;
36497;SDS011;22513;51.222;6.480;2022-08-11T16:46:12;7.22;;;2.38;;
36497;SDS011;22513;51.222;6.480;2022-08-11T16:49:00;5.13;;;2.15;;
36497;SDS011;22513;51.222;6.480;2022-08-11T16:51:31;3.95;;;2.38;;
36497;SDS011;22513;51.222;6.480;2022-08-11T16:53:57;6.30;;;2.92;;
36497;SDS011;22513;51.222;6.480;2022-08-11T16:56:31;2.80;;;2.30;;
36497;SDS011;22513;51.222;6.480;2022-08-11T16:59:01;3.10;;;2.33;;
36497;SDS011;22513;51.222;6.480;2022-08-11T17:07:07;6.75;;;2.65;;
36497;SDS011;22513;51.222;6.480;2022-08-11T17:09:51;3.88;;;2.05;;
36497;SDS011;22513;51.222;6.480;2022-08-11T17:12:37;4.30;;;2.40;;
36497;SDS011;22513;51.222;6.480;2022-08-11T17:15:24;4.82;;;2.50;;
36497;SDS011;22513;51.222;6.480;2022-08-11T17:18:11;4.88;;;2.10;;
36497;SDS011;22513;51.222;6.480;2022-08-11T17:21:00;4.85;;;2.22;;
36497;SDS011;22513;51.222;6.480;2022-08-11T17:23:28;6.63;;;2.20;;
36497;SDS011;22513;51.222;6.480;2022-08-11T17:26:11;2.78;;;2.15;;
36497;SDS011;22513;51.222;6.480;2022-08-11T17:28:39;2.55;;;1.88;;
36497;SDS011;22513;51.222;6.480;2022-08-11T17:31:06;2.30;;;2.10;;
36497;SDS011;22513;51.222;6.480;2022-08-11T17:33:52;5.38;;;2.17;;
36497;SDS011;22513;51.222;6.480;2022-08-11T17:36:39;4.60;;;2.28;;
36497;SDS011;22513;51.222;6.480;2022-08-11T17:39:08;4.57;;;2.40;;
36497;SDS011;22513;51.222;6.480;2022-08-11T17:41:36;3.92;;;2.35;;
36497;SDS011;22513;51.222;6.480;2022-08-11T17:44:21;3.03;;;2.30;;
36497;SDS011;22513;51.222;6.480;2022-08-11T17:47:07;5.88;;;2.17;;
36497;SDS011;22513;51.222;6.480;2022-08-11T17:49:52;3.67;;;2.72;;
36497;SDS011;22513;51.222;6.480;2022-08-11T17:52:18;4.60;;;2.63;;
36497;SDS011;22513;51.222;6.480;2022-08-11T17:54:58;5.45;;;2.40;;
36497;SDS011;22513;51.222;6.480;2022-08-11T17:57:43;3.30;;;2.15;;
36497;SDS011;22513;51.222;6.480;2022-08-11T18:00:27;4.07;;;2.28;;
36497;SDS011;22513;51.222;6.480;2022-08-11T18:02:55;6.00;;;2.72;;
36497;SDS011;22513;51.222;6.480;2022-08-11T18:05:43;3.55;;;2.22;;
36497;SDS011;22513;51.222;6.480;2022-08-11T18:08:11;2.80;;;2.17;;
36497;SDS011;22513;51.222;6.480;2022-08-11T18:10:57;5.28;;;2.20;;
36497;SDS011;22513;51.222;6.480;2022-08-11T18:13:43;4.25;;;2.30;;
36497;SDS011;22513;51.222;6.480;2022-08-11T18:16:29;5.80;;;2.45;;
36497;SDS011;22513;51.222;6.480;2022-08-11T18:19:13;4.10;;;2.20;;
36497;SDS011;22513;51.222;6.480;2022-08-11T18:22:02;3.70;;;2.35;;
36497;SDS011;22513;51.222;6.480;2022-08-11T18:24:51;3.25;;;2.13;;
36497;SDS011;22513;51.222;6.480;2022-08-11T18:27:39;7.38;;;3.15;;
36497;SDS011;22513;51.222;6.480;2022-08-11T18:30:27;3.88;;;2.50;;
36497;SDS011;22513;51.222;6.480;2022-08-11T18:36:02;3.25;;;2.35;;
36497;SDS011;22513;51.222;6.480;2022-08-11T18:38:47;6.63;;;2.58;;
36497;SDS011;22513;51.222;6.480;2022-08-11T18:41:34;5.00;;;2.60;;
36497;SDS011;22513;51.222;6.480;2022-08-11T18:44:20;2.53;;;2.05;;
36497;SDS011;22513;51.222;6.480;2022-08-11T18:47:09;2.53;;;2.33;;
36497;SDS011;22513;51.222;6.480;2022-08-11T18:49:55;5.85;;;2.38;;
36497;SDS011;22513;51.222;6.480;2022-08-11T18:52:42;3.95;;;3.05;;
36497;SDS011;22513;51.222;6.480;2022-08-11T18:55:28;4.90;;;2.63;;
36497;SDS011;22513;51.222;6.480;2022-08-11T18:58:14;4.13;;;2.55;;
36497;SDS011;22513;51.222;6.480;2022-08-11T19:01:03;6.20;;;3.15;;
36497;SDS011;22513;51.222;6.480;2022-08-11T19:03:50;4.07;;;2.42;;
36497;SDS011;22513;51.222;6.480;2022-08-11T19:06:36;7.30;;;2.80;;
36497;SDS011;22513;51.222;6.480;2022-08-11T19:09:22;5.05;;;2.67;;
36497;SDS011;22513;51.222;6.480;2022-08-11T19:12:08;3.20;;;2.50;;
36497;SDS011;22513;51.222;6.480;2022-08-11T19:14:55;3.83;;;2.33;;
36497;SDS011;22513;51.222;6.480;2022-08-11T19:17:41;5.05;;;2.30;;
36497;SDS011;22513;51.222;6.480;2022-08-11T19:20:28;7.63;;;2.88;;
36497;SDS011;22513;51.222;6.480;2022-08-11T19:23:15;7.50;;;2.67;;
36497;SDS011;22513;51.222;6.480;2022-08-11T19:26:03;5.35;;;2.60;;
36497;SDS011;22513;51.222;6.480;2022-08-11T19:28:48;6.20;;;2.50;;
36497;SDS011;22513;51.222;6.480;2022-08-11T19:31:34;4.32;;;2.47;;
36497;SDS011;22513;51.222;6.480;2022-08-11T19:34:21;4.15;;;2.58;;
36497;SDS011;22513;51.222;6.480;2022-08-11T19:37:08;9.65;;;3.03;;
36497;SDS011;22513;51.222;6.480;2022-08-11T19:39:54;4.43;;;2.80;;
36497;SDS011;22513;51.222;6.480;2022-08-11T19:42:44;7.22;;;2.85;;
36497;SDS011;22513;51.222;6.480;2022-08-11T19:45:30;4.28;;;2.47;;
36497;SDS011;22513;51.222;6.480;2022-08-11T19:48:16;6.40;;;2.97;;
36497;SDS011;22513;51.222;6.480;2022-08-11T19:51:02;7.18;;;2.70;;
36497;SDS011;22513;51.222;6.480;2022-08-11T19:53:47;5.18;;;2.70;;
36497;SDS011;22513;51.222;6.480;2022-08-11T19:56:32;5.82;;;3.00;;
36497;SDS011;22513;51.222;6.480;2022-08-11T19:59:18;6.57;;;2.85;;
36497;SDS011;22513;51.222;6.480;2022-08-11T20:02:03;3.53;;;2.75;;
36497;SDS011;22513;51.222;6.480;2022-08-11T20:04:48;6.10;;;3.25;;
36497;SDS011;22513;51.222;6.480;2022-08-11T20:07:32;7.25;;;3.05;;
36497;SDS011;22513;51.222;6.480;2022-08-11T20:10:19;3.45;;;2.63;;
36497;SDS011;22513;51.222;6.480;2022-08-11T20:13:05;5.45;;;2.90;;